»·PEaware :: ASA877 KDEN-KSNA

ASA877 :: KDEN-KSNA

FLIGHT INFORMATION

Flight Status: Arrived
Operator:
Alaska Airlines
More flights by this operator :: More flights under this callsign
Pilot: Anthony T. (15846)
Aircraft: BOEING 737-800
(B738)
More flights by this aircraft type
Origin: KDEN Denver Intl
United States
Destination: KSNA John Wayne-Orange Co
United States
More flights between these airports :: More routes between these airports
Route: +BAYLR3 TEHRU TOADD Q78 MARUE DSNEE3
File this flight plan on PilotEdge
Remarks:
Altitude:
(Current/Filed)
35,000ft
Speed:
(Current/Filed)
315kts
Departed: 11-May-18 05:19 PM
Arrived: 11-May-18 07:30 PM
Distance/Time
Traveled:
734nm/2:11
Distance/Time
To Go:
Arrived

Flight Plot

Page will automatically refresh every two minutes.

Flight plan parsing failed; only flown route is shown


Map Options




Map Legend


Flown Route
Filed Route
Departure Airport
Arrival Airport
Navaid (VOR, NDB)
Fix

Horizontal Profiles

Position Reports

Time Latitude Longitude Heading Altitude Ground
Speed
11-May-18 16:44 39.854447 -104.676029 165 5442ft 0kts
11-May-18 16:45 39.854447 -104.676029 165 5442ft 0kts
11-May-18 16:46 39.862617 -104.677787 17 5442ft 0kts
11-May-18 16:47 39.862617 -104.677787 17 5442ft 0kts
11-May-18 16:48 39.862617 -104.677787 17 5442ft 0kts
11-May-18 16:49 39.862617 -104.677787 17 5442ft 0kts
11-May-18 16:50 39.862617 -104.677787 17 5442ft 0kts
11-May-18 16:51 39.862617 -104.677787 17 5442ft 0kts
11-May-18 16:52 39.862617 -104.677787 17 5442ft 0kts
11-May-18 16:53 39.862617 -104.677787 17 5442ft 0kts
11-May-18 16:54 39.862617 -104.677787 17 5442ft 0kts
11-May-18 16:55 39.862617 -104.677787 17 5442ft 0kts
11-May-18 16:56 39.862617 -104.677787 17 5442ft 0kts
11-May-18 16:57 39.862497 -104.670789 358 5442ft 0kts
11-May-18 16:58 39.862153 -104.670819 7 5442ft 1kts
11-May-18 16:59 39.861777 -104.671180 93 5442ft 0kts
11-May-18 17:00 39.861777 -104.671180 93 5442ft 0kts
11-May-18 17:01 39.861777 -104.671180 93 5442ft 0kts
11-May-18 17:02 39.861777 -104.671180 93 5442ft 0kts
11-May-18 17:03 39.861777 -104.671180 93 5442ft 0kts
11-May-18 17:04 39.861773 -104.671137 98 5442ft 0kts
11-May-18 17:05 39.861773 -104.671137 98 5442ft 0kts
11-May-18 17:06 39.861773 -104.671137 98 5442ft 0kts
11-May-18 17:07 39.861725 -104.670973 113 5442ft 6kts
11-May-18 17:08 39.861253 -104.666422 88 5442ft 2kts
11-May-18 17:09 39.861254 -104.663587 31 5442ft 6kts
11-May-18 17:10 39.861446 -104.662313 15 5442ft 14kts
11-May-18 17:11 39.869978 -104.662178 0 5442ft 34kts
11-May-18 17:12 39.876269 -104.662098 0 5442ft 0kts
11-May-18 17:13 39.876269 -104.662098 0 5442ft 0kts
11-May-18 17:14 39.876269 -104.662098 0 5442ft 0kts
11-May-18 17:15 39.876269 -104.662098 0 5442ft 0kts
11-May-18 17:16 39.876269 -104.662098 0 5442ft 0kts
11-May-18 17:17 39.876269 -104.662098 0 5442ft 0kts
11-May-18 17:18 39.876995 -104.662080 5 5442ft 14kts
11-May-18 17:19 39.877376 -104.636239 90 5474ft 194kts
11-May-18 17:20 39.878570 -104.550969 90 8138ft 275kts
11-May-18 17:21 39.881603 -104.448642 90 10639ft 295kts
11-May-18 17:22 39.885533 -104.338555 91 13160ft 313kts
11-May-18 17:23 39.890717 -104.222849 91 15833ft 331kts
11-May-18 17:24 39.897186 -104.100139 91 18560ft 350kts
11-May-18 17:25 39.904463 -103.971106 90 21278ft 370kts
11-May-18 17:26 39.912099 -103.833583 90 23033ft 388kts
11-May-18 17:27 39.919873 -103.695043 90 22863ft 383kts
11-May-18 17:28 39.927614 -103.553278 90 25077ft 407kts
11-May-18 17:29 39.934988 -103.405565 90 27116ft 410kts
11-May-18 17:30 39.936334 -103.258032 111 29103ft 403kts
11-May-18 17:31 39.863959 -103.185130 204 31178ft 321kts
11-May-18 17:32 39.842770 -103.274479 281 33299ft 297kts
11-May-18 17:33 39.866713 -103.381793 282 33879ft 330kts
11-May-18 17:34 39.889635 -103.507748 268 33880ft 385kts
11-May-18 17:35 39.872663 -103.645773 258 33854ft 397kts
11-May-18 17:36 39.846634 -103.785620 256 33866ft 409kts
11-May-18 17:37 39.823357 -103.906923 256 33855ft 415kts
11-May-18 17:38 39.795381 -104.051591 256 33821ft 415kts
11-May-18 17:39 39.767126 -104.196671 256 33790ft 421kts
11-May-18 17:40 39.738459 -104.342800 256 33786ft 422kts
11-May-18 17:41 39.709598 -104.488872 256 33783ft 422kts
11-May-18 17:42 39.680321 -104.635991 256 33783ft 421kts
11-May-18 17:43 39.651178 -104.781403 256 33815ft 421kts
11-May-18 17:44 39.621709 -104.927466 255 33839ft 421kts
11-May-18 17:45 39.591995 -105.073772 254 33843ft 422kts
11-May-18 17:46 39.561995 -105.220161 254 33850ft 431kts
11-May-18 17:47 39.530359 -105.373549 254 33868ft 461kts
11-May-18 17:48 39.497500 -105.531733 254 33867ft 453kts
11-May-18 17:49 39.464763 -105.688133 253 33946ft 454kts
11-May-18 17:50 39.431660 -105.845209 253 34024ft 454kts
11-May-18 17:51 39.398294 -106.002343 253 34026ft 453kts
11-May-18 17:52 39.364742 -106.159230 253 34024ft 453kts
11-May-18 17:53 39.331022 -106.315710 254 34023ft 453kts
11-May-18 17:54 39.296978 -106.472603 253 34021ft 453kts
11-May-18 17:55 39.262807 -106.628984 253 33994ft 454kts
11-May-18 17:56 39.210193 -106.774797 237 33930ft 456kts
11-May-18 17:57 39.136550 -106.905905 235 33906ft 449kts
11-May-18 17:58 39.062995 -107.033802 235 33902ft 439kts
11-May-18 17:59 38.990046 -107.160047 235 33903ft 445kts
11-May-18 18:00 38.915332 -107.288824 236 33898ft 455kts
11-May-18 18:01 38.839162 -107.419616 236 33832ft 459kts
11-May-18 18:02 38.762696 -107.550363 236 33764ft 459kts
11-May-18 18:03 38.685955 -107.681038 235 33777ft 460kts
11-May-18 18:04 38.610565 -107.808927 236 33773ft 460kts
11-May-18 18:05 38.533417 -107.939250 235 33774ft 460kts
11-May-18 18:06 38.456283 -108.069026 235 33763ft 460kts
11-May-18 18:07 38.378829 -108.198825 235 33770ft 460kts
11-May-18 18:08 38.301338 -108.328174 236 33777ft 460kts
11-May-18 18:09 38.223774 -108.457149 236 33785ft 460kts
11-May-18 18:10 38.146031 -108.585878 235 33784ft 460kts
11-May-18 18:11 38.068730 -108.713375 235 33790ft 460kts
11-May-18 18:12 37.990407 -108.842076 235 33789ft 461kts
11-May-18 18:13 37.912202 -108.970065 235 33787ft 460kts
11-May-18 18:14 37.834540 -109.096671 235 33813ft 454kts
11-May-18 18:15 37.757474 -109.221866 235 33822ft 448kts
11-May-18 18:16 37.680834 -109.345884 235 33824ft 449kts
11-May-18 18:17 37.604141 -109.469502 235 33823ft 449kts
11-May-18 18:18 37.527259 -109.592942 235 33817ft 448kts
11-May-18 18:19 37.450270 -109.716118 235 33830ft 449kts
11-May-18 18:20 37.373128 -109.839147 235 33828ft 449kts
11-May-18 18:21 37.295778 -109.961938 235 33826ft 449kts
11-May-18 18:22 37.218393 -110.084391 235 33822ft 448kts
11-May-18 18:23 37.140678 -110.206874 235 33819ft 449kts
11-May-18 18:24 37.062375 -110.329902 235 33819ft 460kts
11-May-18 18:25 36.981489 -110.456496 235 33821ft 473kts
11-May-18 18:26 36.898851 -110.585295 235 33816ft 476kts
11-May-18 18:27 36.816145 -110.713687 234 33834ft 476kts
11-May-18 18:28 36.733128 -110.842113 234 33876ft 477kts
11-May-18 18:29 36.649926 -110.970314 234 33889ft 474kts
11-May-18 18:30 36.567421 -111.096965 234 33889ft 472kts
11-May-18 18:31 36.484967 -111.223088 234 33886ft 471kts
11-May-18 18:32 36.402219 -111.349187 234 33884ft 471kts
11-May-18 18:33 36.319597 -111.474621 235 33885ft 471kts
11-May-18 18:34 36.265005 -111.618141 252 33882ft 462kts
11-May-18 18:35 36.220955 -111.767576 252 33891ft 462kts
11-May-18 18:36 36.177003 -111.917017 252 33890ft 463kts
11-May-18 18:37 36.132774 -112.066704 252 33887ft 463kts
11-May-18 18:38 36.088459 -112.215871 252 33889ft 463kts
11-May-18 18:39 36.043957 -112.364887 251 33882ft 463kts
11-May-18 18:40 35.999257 -112.513742 252 33884ft 463kts
11-May-18 18:41 35.954487 -112.662105 251 33888ft 463kts
11-May-18 18:42 35.909351 -112.810873 251 33891ft 462kts
11-May-18 18:43 35.864405 -112.958176 251 33891ft 459kts
11-May-18 18:44 35.819545 -113.104628 251 33862ft 455kts
11-May-18 18:45 35.774683 -113.250207 251 33765ft 456kts
11-May-18 18:46 35.729519 -113.396075 251 33732ft 456kts
11-May-18 18:47 35.684188 -113.541688 251 33727ft 456kts
11-May-18 18:48 35.638759 -113.686922 251 33734ft 456kts
11-May-18 18:49 35.593072 -113.832275 251 33738ft 456kts
11-May-18 18:50 35.547299 -113.977184 251 33735ft 456kts
11-May-18 18:51 35.501247 -114.122260 251 33733ft 456kts
11-May-18 18:52 35.455089 -114.266972 251 33721ft 457kts
11-May-18 18:53 35.408655 -114.411830 251 33608ft 457kts
11-May-18 18:54 35.362045 -114.556546 251 33533ft 456kts
11-May-18 18:55 35.315315 -114.700870 250 33547ft 457kts
11-May-18 18:56 35.268399 -114.845121 250 33547ft 457kts
11-May-18 18:57 35.228355 -114.992170 254 33543ft 456kts
11-May-18 18:58 35.190490 -115.140222 255 33545ft 459kts
11-May-18 18:59 35.152183 -115.289344 255 33565ft 461kts
11-May-18 19:00 35.113724 -115.438654 255 33595ft 461kts
11-May-18 19:01 35.075240 -115.587487 255 33650ft 460kts
11-May-18 19:02 35.036659 -115.735922 255 33737ft 460kts
11-May-18 19:03 34.998341 -115.885727 255 33705ft 466kts
11-May-18 19:04 34.959650 -116.037013 255 33356ft 473kts
11-May-18 19:05 34.921085 -116.186971 254 30827ft 457kts
11-May-18 19:06 34.877782 -116.329463 238 28280ft 451kts
11-May-18 19:07 34.796493 -116.443194 230 25743ft 440kts
11-May-18 19:08 34.713789 -116.548679 229 24193ft 427kts
11-May-18 19:09 34.624369 -116.642023 222 22977ft 408kts
11-May-18 19:10 34.538624 -116.726023 222 20666ft 394kts
11-May-18 19:11 34.459762 -116.811235 226 18155ft 367kts
11-May-18 19:12 34.387898 -116.894615 226 15310ft 354kts
11-May-18 19:13 34.326193 -116.965931 226 14887ft 330kts
11-May-18 19:14 34.257522 -117.038551 217 13975ft 331kts
11-May-18 19:15 34.180014 -117.096102 213 12056ft 321kts
11-May-18 19:16 34.099859 -117.140569 208 11970ft 319kts
11-May-18 19:17 34.021128 -117.182977 208 11975ft 324kts
11-May-18 19:18 33.958220 -117.251257 230 10306ft 303kts
11-May-18 19:19 33.922582 -117.328008 261 8462ft 294kts
11-May-18 19:20 33.910319 -117.415263 261 6615ft 285kts
11-May-18 19:21 33.903822 -117.503974 271 4707ft 280kts
11-May-18 19:22 33.905080 -117.589988 271 3983ft 221kts
11-May-18 19:23 33.906512 -117.659617 271 3974ft 205kts
11-May-18 19:24 33.881575 -117.716570 219 3987ft 193kts
11-May-18 19:25 33.846063 -117.750188 219 3312ft 166kts
11-May-18 19:26 33.811364 -117.781791 209 2920ft 162kts
11-May-18 19:27 33.772430 -117.807427 205 2082ft 162kts
11-May-18 19:28 33.735033 -117.831199 204 1261ft 151kts
11-May-18 19:29 33.698296 -117.854504 204 474ft 150kts
11-May-18 19:30 33.670884 -117.871868 206 65ft 23kts
11-May-18 19:31 33.669241 -117.871714 130 64ft 0kts
11-May-18 19:32 33.669452 -117.870581 42 64ft 14kts

Navigation Log

Ident Type
Flight plan parsing failed, navigation log unavailable